Terminal Aerodrome Forecast
Issued by NWS Topeka, KS

Home | Current Version | Previous Version | Text Only | Print | Product List | Glossary Off
Versions: 1 2 3 4 5 6 7 8 9 10 11 12 13 14 15 16 17 18 19 20 21 22 23 24 25 26

000
FTUS43 KTOP 201941 AAB
TAFTOP
TAF AMD
KTOP 201941Z 2020/2118 11006KT 2SM BR OVC003
     FM202100 13006KT 6SM BR SCT008 OVC015
     FM210300 17005KT 6SM BR BKN025
     FM210700 19005KT 4SM BR BKN007
     FM211600 23006KT P6SM SCT030=

USA.gov is the U.S. government's official web portal to all federal, state and local government web resources and services.